TAF

Looking Back 6 Hours

Worst Weather Category
LocationTimeVisiblityCeilingWeatherWind SpeedWind Gust
KPBF292323Z6NONENONE SW 9SW 16

  • TAFPBF TAF KPBF 292323Z 3000/3024 28006KT P6SM SKC
          FM300100 24003KT P6SM SKC
          FM301500 23009G16KT P6SM SKC =